KCSQ/CSQ METAR and TAF weather

Enter ICAO airport designator
Station Type Date Time Source
KCSQ METAR 2019/04/25 16:15 UTC NOAA

KCSQ 251615Z AUTO 01023G30KT 9SM CLR 18/10 A2980 RMK AO2


Station Type Date Time Source
KCSQ Decoded METAR 2019/04/25 16:15 UTC NOAA

Creston, IA, United States (KCSQ) 41-01N 094-22W
Apr 25, 2019 - 12:15 PM EDT / 2019.04.25 1615 UTC
Wind: from the N (010 degrees) at 26 MPH (23 KT) gusting to 35 MPH (30 KT):0
Visibility: 9 mile(s):0
Sky conditions: clear
Temperature: 64 F (18 C)
Dew Point: 50 F (10 C)
Relative Humidity: 59%
Pressure (altimeter): 29.8 in. Hg (1009 hPa)
ob: KCSQ 251615Z AUTO 01023G30KT 9SM CLR 18/10 A2980 RMK AO2
cycle: 16

Station Type Date Time Source
KCSQ TAF UTC NOAA

Error!

Example: see airport list